sensor_id;sensor_type;location;lat;lon;timestamp;pressure;altitude;pressure_sealevel;temperature;humidity
75172;BME280;63750;52.418;20.742;2023-02-28T00:00:33;102194.98;;;1.94;47.35
75172;BME280;63750;52.418;20.742;2023-02-28T00:03:01;102192.40;;;1.93;47.29
75172;BME280;63750;52.418;20.742;2023-02-28T00:05:29;102196.26;;;1.93;47.53
75172;BME280;63750;52.418;20.742;2023-02-28T00:07:56;102197.01;;;1.91;47.34
75172;BME280;63750;52.418;20.742;2023-02-28T00:10:25;102197.75;;;1.89;47.43
75172;BME280;63750;52.418;20.742;2023-02-28T00:12:54;102199.04;;;1.86;47.30
75172;BME280;63750;52.418;20.742;2023-02-28T00:15:22;102197.89;;;1.83;47.43
75172;BME280;63750;52.418;20.742;2023-02-28T00:17:50;102195.85;;;1.80;47.41
75172;BME280;63750;52.418;20.742;2023-02-28T00:20:17;102194.70;;;1.78;47.45
75172;BME280;63750;52.418;20.742;2023-02-28T00:22:49;102196.63;;;1.78;47.56
75172;BME280;63750;52.418;20.742;2023-02-28T00:25:21;102195.77;;;1.77;47.62
75172;BME280;63750;52.418;20.742;2023-02-28T00:27:49;102198.70;;;1.78;47.84
75172;BME280;63750;52.418;20.742;2023-02-28T00:30:17;102200.75;;;1.80;47.87
75172;BME280;63750;52.418;20.742;2023-02-28T00:32:46;102197.58;;;1.81;47.69
75172;BME280;63750;52.418;20.742;2023-02-28T00:35:14;102195.87;;;1.79;47.88
75172;BME280;63750;52.418;20.742;2023-02-28T00:37:41;102200.45;;;1.78;47.86
75172;BME280;63750;52.418;20.742;2023-02-28T00:40:11;102201.70;;;1.77;47.82
75172;BME280;63750;52.418;20.742;2023-02-28T00:42:39;102202.92;;;1.77;47.92
75172;BME280;63750;52.418;20.742;2023-02-28T00:45:08;102204.89;;;1.75;48.01
75172;BME280;63750;52.418;20.742;2023-02-28T00:47:36;102206.55;;;1.71;48.14
75172;BME280;63750;52.418;20.742;2023-02-28T00:50:04;102204.71;;;1.67;48.25
75172;BME280;63750;52.418;20.742;2023-02-28T00:52:34;102203.42;;;1.63;48.01
75172;BME280;63750;52.418;20.742;2023-02-28T00:55:01;102206.48;;;1.60;48.16
75172;BME280;63750;52.418;20.742;2023-02-28T00:57:28;102207.77;;;1.56;48.29
75172;BME280;63750;52.418;20.742;2023-02-28T00:59:56;102205.22;;;1.53;48.38
75172;BME280;63750;52.418;20.742;2023-02-28T01:02:24;102202.67;;;1.50;48.37
75172;BME280;63750;52.418;20.742;2023-02-28T01:04:51;102203.50;;;1.45;48.33
75172;BME280;63750;52.418;20.742;2023-02-28T01:07:18;102208.13;;;1.40;48.41
75172;BME280;63750;52.418;20.742;2023-02-28T01:09:46;102201.91;;;1.37;48.52
75172;BME280;63750;52.418;20.742;2023-02-28T01:12:13;102203.64;;;1.31;48.37
75172;BME280;63750;52.418;20.742;2023-02-28T01:14:41;102207.02;;;1.28;48.50
75172;BME280;63750;52.418;20.742;2023-02-28T01:17:08;102204.98;;;1.25;48.68
75172;BME280;63750;52.418;20.742;2023-02-28T01:19:36;102205.73;;;1.23;48.73
75172;BME280;63750;52.418;20.742;2023-02-28T01:22:05;102212.05;;;1.20;48.63
75172;BME280;63750;52.418;20.742;2023-02-28T01:24:32;102211.45;;;1.17;48.66
75172;BME280;63750;52.418;20.742;2023-02-28T01:27:00;102209.60;;;1.13;48.67
75172;BME280;63750;52.418;20.742;2023-02-28T01:29:27;102214.34;;;1.12;48.85
75172;BME280;63750;52.418;20.742;2023-02-28T01:31:54;102214.35;;;1.11;49.05
75172;BME280;63750;52.418;20.742;2023-02-28T01:34:22;102212.10;;;1.10;48.99
75172;BME280;63750;52.418;20.742;2023-02-28T01:36:49;102212.13;;;1.09;48.98
75172;BME280;63750;52.418;20.742;2023-02-28T01:39:17;102210.95;;;1.07;48.97
75172;BME280;63750;52.418;20.742;2023-02-28T01:41:44;102211.41;;;1.02;49.14
75172;BME280;63750;52.418;20.742;2023-02-28T01:47:15;102207.96;;;0.99;49.18
75172;BME280;63750;52.418;20.742;2023-02-28T01:49:43;102211.44;;;1.00;49.66
75172;BME280;63750;52.418;20.742;2023-02-28T01:52:12;102215.80;;;1.01;49.56
75172;BME280;63750;52.418;20.742;2023-02-28T01:54:41;102215.78;;;1.02;49.51
75172;BME280;63750;52.418;20.742;2023-02-28T01:57:11;102212.27;;;1.02;49.72
75172;BME280;63750;52.418;20.742;2023-02-28T01:59:43;102214.19;;;1.02;49.59
75172;BME280;63750;52.418;20.742;2023-02-28T02:02:14;102210.28;;;1.04;49.84
75172;BME280;63750;52.418;20.742;2023-02-28T02:04:46;102206.90;;;1.08;49.86
75172;BME280;63750;52.418;20.742;2023-02-28T02:07:17;102208.29;;;1.09;49.75
75172;BME280;63750;52.418;20.742;2023-02-28T02:09:45;102207.09;;;1.08;49.68
75172;BME280;63750;52.418;20.742;2023-02-28T02:12:20;102206.39;;;1.08;49.93
75172;BME280;63750;52.418;20.742;2023-02-28T02:15:02;102204.48;;;1.07;49.80
75172;BME280;63750;52.418;20.742;2023-02-28T02:17:37;102205.02;;;1.06;49.95
75172;BME280;63750;52.418;20.742;2023-02-28T02:20:32;102210.79;;;1.05;49.93
75172;BME280;63750;52.418;20.742;2023-02-28T02:23:31;102215.56;;;1.03;49.88
75172;BME280;63750;52.418;20.742;2023-02-28T02:26:08;102215.78;;;1.01;50.12
75172;BME280;63750;52.418;20.742;2023-02-28T02:31:54;102218.02;;;1.03;50.18
75172;BME280;63750;52.418;20.742;2023-02-28T02:34:29;102218.73;;;1.02;50.15
75172;BME280;63750;52.418;20.742;2023-02-28T02:37:17;102221.37;;;1.01;50.37
75172;BME280;63750;52.418;20.742;2023-02-28T02:39:52;102221.23;;;0.99;50.27
75172;BME280;63750;52.418;20.742;2023-02-28T02:42:25;102218.50;;;0.96;50.21
75172;BME280;63750;52.418;20.742;2023-02-28T02:44:59;102221.87;;;0.93;50.36
75172;BME280;63750;52.418;20.742;2023-02-28T02:47:30;102218.98;;;0.89;50.47
75172;BME280;63750;52.418;20.742;2023-02-28T02:50:03;102219.06;;;0.86;50.52
75172;BME280;63750;52.418;20.742;2023-02-28T02:52:36;102220.36;;;0.82;50.55
75172;BME280;63750;52.418;20.742;2023-02-28T02:55:08;102216.75;;;0.79;50.69
75172;BME280;63750;52.418;20.742;2023-02-28T02:57:40;102218.02;;;0.76;50.82
75172;BME280;63750;52.418;20.742;2023-02-28T03:00:13;102215.13;;;0.74;50.74
75172;BME280;63750;52.418;20.742;2023-02-28T03:02:42;102216.02;;;0.72;50.71
75172;BME280;63750;52.418;20.742;2023-02-28T03:05:17;102217.64;;;0.70;50.98
75172;BME280;63750;52.418;20.742;2023-02-28T03:07:46;102217.83;;;0.68;51.09
75172;BME280;63750;52.418;20.742;2023-02-28T03:10:32;102219.75;;;0.68;51.28
75172;BME280;63750;52.418;20.742;2023-02-28T03:13:30;102218.90;;;0.67;51.30
75172;BME280;63750;52.418;20.742;2023-02-28T03:22:12;102219.29;;;0.65;51.33
75172;BME280;63750;52.418;20.742;2023-02-28T03:24:45;102224.66;;;0.66;51.44
75172;BME280;63750;52.418;20.742;2023-02-28T03:27:19;102222.75;;;0.66;51.58
75172;BME280;63750;52.418;20.742;2023-02-28T03:29:51;102223.46;;;0.65;51.50
75172;BME280;63750;52.418;20.742;2023-02-28T03:32:25;102219.83;;;0.64;51.63
75172;BME280;63750;52.418;20.742;2023-02-28T03:34:59;102221.78;;;0.61;51.64
75172;BME280;63750;52.418;20.742;2023-02-28T03:37:29;102226.77;;;0.58;51.88
75172;BME280;63750;52.418;20.742;2023-02-28T03:40:02;102226.11;;;0.55;51.92
75172;BME280;63750;52.418;20.742;2023-02-28T03:42:35;102222.31;;;0.52;51.83
75172;BME280;63750;52.418;20.742;2023-02-28T03:45:08;102222.17;;;0.50;51.88
75172;BME280;63750;52.418;20.742;2023-02-28T03:47:40;102226.59;;;0.47;52.01
75172;BME280;63750;52.418;20.742;2023-02-28T03:50:12;102228.38;;;0.45;52.10
75172;BME280;63750;52.418;20.742;2023-02-28T03:52:47;102225.27;;;0.44;52.09
75172;BME280;63750;52.418;20.742;2023-02-28T03:55:17;102228.95;;;0.43;51.99
75172;BME280;63750;52.418;20.742;2023-02-28T03:57:58;102230.73;;;0.40;52.22
75172;BME280;63750;52.418;20.742;2023-02-28T04:00:31;102229.92;;;0.36;52.16
75172;BME280;63750;52.418;20.742;2023-02-28T04:03:02;102237.08;;;0.35;52.25
75172;BME280;63750;52.418;20.742;2023-02-28T04:05:31;102238.85;;;0.34;52.33
75172;BME280;63750;52.418;20.742;2023-02-28T04:08:05;102234.34;;;0.32;52.23
75172;BME280;63750;52.418;20.742;2023-02-28T04:10:33;102237.70;;;0.30;52.39
75172;BME280;63750;52.418;20.742;2023-02-28T04:13:00;102242.11;;;0.28;52.50
75172;BME280;63750;52.418;20.742;2023-02-28T04:15:28;102241.95;;;0.27;52.49
75172;BME280;63750;52.418;20.742;2023-02-28T04:17:55;102240.92;;;0.25;52.55
75172;BME280;63750;52.418;20.742;2023-02-28T04:20:23;102239.20;;;0.24;52.58
75172;BME280;63750;52.418;20.742;2023-02-28T04:22:50;102235.73;;;0.23;52.59
75172;BME280;63750;52.418;20.742;2023-02-28T04:25:18;102234.90;;;0.20;52.66
75172;BME280;63750;52.418;20.742;2023-02-28T04:27:45;102238.59;;;0.19;52.67
75172;BME280;63750;52.418;20.742;2023-02-28T04:30:13;102231.11;;;0.17;52.76
75172;BME280;63750;52.418;20.742;2023-02-28T04:32:41;102232.51;;;0.17;52.90
75172;BME280;63750;52.418;20.742;2023-02-28T04:35:09;102240.36;;;0.17;52.87
75172;BME280;63750;52.418;20.742;2023-02-28T04:37:37;102239.70;;;0.15;52.76
75172;BME280;63750;52.418;20.742;2023-02-28T04:40:06;102236.24;;;0.14;52.92
75172;BME280;63750;52.418;20.742;2023-02-28T04:42:34;102239.73;;;0.13;52.97
75172;BME280;63750;52.418;20.742;2023-02-28T04:45:01;102237.66;;;0.12;52.98
75172;BME280;63750;52.418;20.742;2023-02-28T04:47:29;102241.85;;;0.11;53.05
75172;BME280;63750;52.418;20.742;2023-02-28T04:49:56;102243.29;;;0.09;52.87
75172;BME280;63750;52.418;20.742;2023-02-28T04:52:24;102242.61;;;0.07;52.98
75172;BME280;63750;52.418;20.742;2023-02-28T04:54:51;102241.27;;;0.03;52.90
75172;BME280;63750;52.418;20.742;2023-02-28T04:57:18;102246.90;;;0.00;53.08
75172;BME280;63750;52.418;20.742;2023-02-28T04:59:46;102247.29;;;-0.01;53.06
75172;BME280;63750;52.418;20.742;2023-02-28T05:02:13;102252.73;;;-0.04;53.14
75172;BME280;63750;52.418;20.742;2023-02-28T05:04:40;102254.17;;;-0.07;53.18
75172;BME280;63750;52.418;20.742;2023-02-28T05:07:07;102258.55;;;-0.09;53.21
75172;BME280;63750;52.418;20.742;2023-02-28T05:09:35;102262.39;;;-0.10;53.32
75172;BME280;63750;52.418;20.742;2023-02-28T05:12:02;102267.27;;;-0.09;53.27
75172;BME280;63750;52.418;20.742;2023-02-28T05:14:30;102267.96;;;-0.10;53.29
75172;BME280;63750;52.418;20.742;2023-02-28T05:16:57;102272.85;;;-0.10;53.35
75172;BME280;63750;52.418;20.742;2023-02-28T05:19:24;102275.13;;;-0.10;53.33
75172;BME280;63750;52.418;20.742;2023-02-28T05:21:53;102278.11;;;-0.13;53.32
75172;BME280;63750;52.418;20.742;2023-02-28T05:24:21;102282.52;;;-0.15;53.42
75172;BME280;63750;52.418;20.742;2023-02-28T05:26:49;102284.48;;;-0.18;53.42
75172;BME280;63750;52.418;20.742;2023-02-28T05:29:17;102286.05;;;-0.19;53.53
75172;BME280;63750;52.418;20.742;2023-02-28T05:31:44;102287.30;;;-0.20;53.53
75172;BME280;63750;52.418;20.742;2023-02-28T05:34:11;102289.76;;;-0.22;53.60
75172;BME280;63750;52.418;20.742;2023-02-28T05:36:39;102291.52;;;-0.25;53.68
75172;BME280;63750;52.418;20.742;2023-02-28T05:39:06;102295.36;;;-0.25;53.65
75172;BME280;63750;52.418;20.742;2023-02-28T05:41:34;102296.57;;;-0.24;53.62
75172;BME280;63750;52.418;20.742;2023-02-28T05:44:01;102303.02;;;-0.24;53.76
75172;BME280;63750;52.418;20.742;2023-02-28T05:46:28;102306.61;;;-0.19;53.73
75172;BME280;63750;52.418;20.742;2023-02-28T05:48:56;102306.33;;;-0.12;53.73
75172;BME280;63750;52.418;20.742;2023-02-28T05:51:23;102312.46;;;-0.02;53.88
75172;BME280;63750;52.418;20.742;2023-02-28T05:53:50;102311.98;;;0.06;53.86
75172;BME280;63750;52.418;20.742;2023-02-28T05:56:18;102316.23;;;0.14;53.85
75172;BME280;63750;52.418;20.742;2023-02-28T05:58:45;102313.84;;;0.22;53.91
75172;BME280;63750;52.418;20.742;2023-02-28T06:01:34;102313.89;;;0.29;53.90
75172;BME280;63750;52.418;20.742;2023-02-28T06:04:03;102312.73;;;0.37;53.88
75172;BME280;63750;52.418;20.742;2023-02-28T06:06:30;102318.16;;;0.45;53.86
75172;BME280;63750;52.418;20.742;2023-02-28T06:08:58;102315.59;;;0.54;53.88
75172;BME280;63750;52.418;20.742;2023-02-28T06:11:25;102317.52;;;0.63;53.69
75172;BME280;63750;52.418;20.742;2023-02-28T06:13:54;102316.89;;;0.70;53.70
75172;BME280;63750;52.418;20.742;2023-02-28T06:16:22;102320.73;;;0.78;53.76
75172;BME280;63750;52.418;20.742;2023-02-28T06:18:49;102321.10;;;0.87;53.61
75172;BME280;63750;52.418;20.742;2023-02-28T06:21:16;102318.14;;;0.97;53.38
75172;BME280;63750;52.418;20.742;2023-02-28T06:23:44;102319.15;;;1.08;53.52
75172;BME280;63750;52.418;20.742;2023-02-28T06:26:11;102315.98;;;1.18;53.58
75172;BME280;63750;52.418;20.742;2023-02-28T06:28:38;102315.10;;;1.27;53.30
75172;BME280;63750;52.418;20.742;2023-02-28T06:31:11;102315.09;;;1.36;53.30
75172;BME280;63750;52.418;20.742;2023-02-28T06:33:40;102312.95;;;1.47;53.48
75172;BME280;63750;52.418;20.742;2023-02-28T06:36:09;102309.58;;;1.58;53.33
75172;BME280;63750;52.418;20.742;2023-02-28T06:38:37;102310.50;;;1.72;53.45
75172;BME280;63750;52.418;20.742;2023-02-28T06:41:05;102305.11;;;1.87;53.26
75172;BME280;63750;52.418;20.742;2023-02-28T06:43:35;102304.45;;;2.00;53.08
75172;BME280;63750;52.418;20.742;2023-02-28T06:46:06;102301.48;;;2.15;53.15
75172;BME280;63750;52.418;20.742;2023-02-28T06:48:35;102297.59;;;2.31;53.01
75172;BME280;63750;52.418;20.742;2023-02-28T06:51:04;102299.48;;;2.47;53.17
75172;BME280;63750;52.418;20.742;2023-02-28T06:53:31;102301.67;;;2.63;52.96
75172;BME280;63750;52.418;20.742;2023-02-28T06:55:59;102297.59;;;2.79;52.87
75172;BME280;63750;52.418;20.742;2023-02-28T06:58:30;102296.44;;;2.96;52.85
75172;BME280;63750;52.418;20.742;2023-02-28T07:00:57;102294.65;;;3.10;52.62
75172;BME280;63750;52.418;20.742;2023-02-28T07:03:25;102289.89;;;3.24;52.62
75172;BME280;63750;52.418;20.742;2023-02-28T07:05:52;102282.02;;;3.35;52.21
75172;BME280;63750;52.418;20.742;2023-02-28T07:08:19;102280.98;;;3.46;52.05
75172;BME280;63750;52.418;20.742;2023-02-28T07:10:47;102274.48;;;3.59;52.21
75172;BME280;63750;52.418;20.742;2023-02-28T07:13:14;102276.33;;;3.73;51.93
75172;BME280;63750;52.418;20.742;2023-02-28T07:15:42;102279.59;;;3.86;51.87
75172;BME280;63750;52.418;20.742;2023-02-28T07:18:09;102273.99;;;4.55;54.45
75172;BME280;63750;52.418;20.742;2023-02-28T07:20:36;102270.11;;;5.98;57.23
75172;BME280;63750;52.418;20.742;2023-02-28T07:23:04;102268.78;;;7.05;57.30
75172;BME280;63750;52.418;20.742;2023-02-28T07:25:32;102268.23;;;7.25;54.60
75172;BME280;63750;52.418;20.742;2023-02-28T07:27:59;102268.25;;;7.28;52.79
75172;BME280;63750;52.418;20.742;2023-02-28T07:30:26;102267.02;;;7.28;51.18
75172;BME280;63750;52.418;20.742;2023-02-28T07:32:54;102271.74;;;7.28;50.07
75172;BME280;63750;52.418;20.742;2023-02-28T07:35:21;102271.26;;;7.36;49.39
75172;BME280;63750;52.418;20.742;2023-02-28T07:37:49;102271.54;;;7.41;48.67
75172;BME280;63750;52.418;20.742;2023-02-28T07:40:17;102268.45;;;7.47;48.08
75172;BME280;63750;52.418;20.742;2023-02-28T07:42:44;102271.52;;;7.57;47.78
75172;BME280;63750;52.418;20.742;2023-02-28T07:45:12;102271.70;;;7.71;47.56
75172;BME280;63750;52.418;20.742;2023-02-28T07:47:39;102268.20;;;7.93;47.81
75172;BME280;63750;52.418;20.742;2023-02-28T07:50:11;102265.66;;;8.01;46.83
75172;BME280;63750;52.418;20.742;2023-02-28T07:52:39;102265.45;;;8.09;46.88
75172;BME280;63750;52.418;20.742;2023-02-28T07:55:09;102266.85;;;8.21;46.50
75172;BME280;63750;52.418;20.742;2023-02-28T07:57:36;102263.55;;;8.19;45.75
75172;BME280;63750;52.418;20.742;2023-02-28T08:00:07;102268.13;;;8.20;45.09
75172;BME280;63750;52.418;20.742;2023-02-28T08:02:37;102265.70;;;8.08;44.35
75172;BME280;63750;52.418;20.742;2023-02-28T08:05:07;102266.89;;;7.98;44.07
75172;BME280;63750;52.418;20.742;2023-02-28T08:07:34;102268.14;;;8.09;44.39
75172;BME280;63750;52.418;20.742;2023-02-28T08:10:02;102266.80;;;8.21;44.49
75172;BME280;63750;52.418;20.742;2023-02-28T08:12:29;102269.02;;;8.12;43.39
75172;BME280;63750;52.418;20.742;2023-02-28T08:14:57;102272.24;;;8.11;43.33
75172;BME280;63750;52.418;20.742;2023-02-28T08:17:24;102269.33;;;8.24;43.69
75172;BME280;63750;52.418;20.742;2023-02-28T08:19:52;102274.80;;;8.31;43.50
75172;BME280;63750;52.418;20.742;2023-02-28T08:22:19;102281.39;;;8.44;43.30
75172;BME280;63750;52.418;20.742;2023-02-28T08:24:47;102282.64;;;8.44;42.69
75172;BME280;63750;52.418;20.742;2023-02-28T08:27:14;102283.14;;;8.41;42.16
75172;BME280;63750;52.418;20.742;2023-02-28T08:29:41;102282.98;;;8.51;42.35
75172;BME280;63750;52.418;20.742;2023-02-28T08:32:09;102281.76;;;8.65;42.56
75172;BME280;63750;52.418;20.742;2023-02-28T08:34:36;102282.88;;;8.74;42.40
75172;BME280;63750;52.418;20.742;2023-02-28T08:37:05;102286.27;;;8.88;41.96
75172;BME280;63750;52.418;20.742;2023-02-28T08:39:35;102288.17;;;8.98;42.21
75172;BME280;63750;52.418;20.742;2023-02-28T08:42:03;102288.79;;;9.04;41.70
75172;BME280;63750;52.418;20.742;2023-02-28T08:44:31;102290.47;;;9.02;41.15
75172;BME280;63750;52.418;20.742;2023-02-28T08:46:58;102292.25;;;8.95;40.47
75172;BME280;63750;52.418;20.742;2023-02-28T08:49:25;102298.55;;;9.06;40.72
75172;BME280;63750;52.418;20.742;2023-02-28T08:51:52;102293.51;;;9.18;40.63
75172;BME280;63750;52.418;20.742;2023-02-28T08:54:20;102297.25;;;9.30;41.02
75172;BME280;63750;52.418;20.742;2023-02-28T08:56:47;102292.77;;;9.48;40.73
75172;BME280;63750;52.418;20.742;2023-02-28T08:59:15;102298.02;;;9.58;40.19
75172;BME280;63750;52.418;20.742;2023-02-28T09:01:43;102301.92;;;9.75;40.60
75172;BME280;63750;52.418;20.742;2023-02-28T09:04:10;102300.56;;;9.80;39.77
75172;BME280;63750;52.418;20.742;2023-02-28T09:06:38;102302.92;;;9.88;39.48
75172;BME280;63750;52.418;20.742;2023-02-28T09:09:06;102302.85;;;9.99;39.41
75172;BME280;63750;52.418;20.742;2023-02-28T09:11:33;102302.08;;;10.07;39.03
75172;BME280;63750;52.418;20.742;2023-02-28T09:14:01;102301.17;;;10.01;38.10
75172;BME280;63750;52.418;20.742;2023-02-28T09:16:29;102303.48;;;9.97;38.27
75172;BME280;63750;52.418;20.742;2023-02-28T09:18:57;102296.80;;;10.00;37.76
75172;BME280;63750;52.418;20.742;2023-02-28T09:21:25;102298.08;;;10.02;37.68
75172;BME280;63750;52.418;20.742;2023-02-28T09:23:52;102294.05;;;10.14;38.13
75172;BME280;63750;52.418;20.742;2023-02-28T09:26:22;102290.54;;;10.35;38.38
75172;BME280;63750;52.418;20.742;2023-02-28T09:28:50;102288.34;;;10.45;37.69
75172;BME280;63750;52.418;20.742;2023-02-28T09:31:20;102293.68;;;10.48;37.36
75172;BME280;63750;52.418;20.742;2023-02-28T09:33:47;102284.77;;;10.61;37.54
75172;BME280;63750;52.418;20.742;2023-02-28T09:36:15;102288.81;;;10.68;37.50
75172;BME280;63750;52.418;20.742;2023-02-28T09:38:42;102292.77;;;10.75;37.27
75172;BME280;63750;52.418;20.742;2023-02-28T09:41:14;102293.20;;;10.86;37.43
75172;BME280;63750;52.418;20.742;2023-02-28T09:43:44;102290.34;;;10.92;37.07
75172;BME280;63750;52.418;20.742;2023-02-28T09:46:24;102292.61;;;10.92;36.51
75172;BME280;63750;52.418;20.742;2023-02-28T09:48:54;102293.48;;;10.99;36.37
75172;BME280;63750;52.418;20.742;2023-02-28T09:51:43;102294.64;;;11.18;36.60
75172;BME280;63750;52.418;20.742;2023-02-28T09:54:15;102298.96;;;11.25;36.06
75172;BME280;63750;52.418;20.742;2023-02-28T09:56:44;102298.29;;;11.10;35.56
75172;BME280;63750;52.418;20.742;2023-02-28T09:59:19;102295.73;;;11.02;35.26
75172;BME280;63750;52.418;20.742;2023-02-28T10:01:56;102302.55;;;11.04;35.73
75172;BME280;63750;52.418;20.742;2023-02-28T10:04:40;102305.73;;;11.16;35.70
75172;BME280;63750;52.418;20.742;2023-02-28T10:07:19;102310.93;;;11.49;36.25
75172;BME280;63750;52.418;20.742;2023-02-28T10:09:53;102306.27;;;11.67;36.01
75172;BME280;63750;52.418;20.742;2023-02-28T10:12:22;102305.85;;;11.80;35.79
75172;BME280;63750;52.418;20.742;2023-02-28T10:14:52;102304.61;;;11.90;35.44
75172;BME280;63750;52.418;20.742;2023-02-28T10:17:23;102301.63;;;12.31;36.34
75172;BME280;63750;52.418;20.742;2023-02-28T10:19:59;102297.95;;;12.80;36.24
75172;BME280;63750;52.418;20.742;2023-02-28T10:22:31;102300.83;;;13.18;35.94
75172;BME280;63750;52.418;20.742;2023-02-28T10:25:19;102300.75;;;13.52;35.69
75172;BME280;63750;52.418;20.742;2023-02-28T10:27:47;102300.50;;;13.70;35.17
75172;BME280;63750;52.418;20.742;2023-02-28T10:30:15;102299.33;;;13.69;34.34
75172;BME280;63750;52.418;20.742;2023-02-28T10:32:47;102299.62;;;13.68;34.03
75172;BME280;63750;52.418;20.742;2023-02-28T10:35:18;102299.30;;;13.60;33.34
75172;BME280;63750;52.418;20.742;2023-02-28T10:37:48;102293.27;;;13.54;33.45
75172;BME280;63750;52.418;20.742;2023-02-28T10:40:32;102287.00;;;13.52;33.23
75172;BME280;63750;52.418;20.742;2023-02-28T10:43:02;102280.98;;;13.64;33.54
75172;BME280;63750;52.418;20.742;2023-02-28T10:45:31;102272.10;;;13.71;33.15
75172;BME280;63750;52.418;20.742;2023-02-28T10:48:01;102267.64;;;13.69;32.58
75172;BME280;63750;52.418;20.742;2023-02-28T10:50:41;102264.86;;;13.70;32.13
75172;BME280;63750;52.418;20.742;2023-02-28T10:53:28;102268.48;;;13.64;32.14
75172;BME280;63750;52.418;20.742;2023-02-28T10:55:59;102263.20;;;13.49;31.65
75172;BME280;63750;52.418;20.742;2023-02-28T10:58:29;102257.63;;;13.28;31.30
75172;BME280;63750;52.418;20.742;2023-02-28T11:00:57;102249.73;;;13.05;30.83
75172;BME280;63750;52.418;20.742;2023-02-28T11:03:30;102250.91;;;13.06;31.48
75172;BME280;63750;52.418;20.742;2023-02-28T11:05:58;102249.75;;;13.18;31.42
75172;BME280;63750;52.418;20.742;2023-02-28T11:08:31;102252.21;;;12.93;31.02
75172;BME280;63750;52.418;20.742;2023-02-28T11:11:00;102245.27;;;12.80;30.77
75172;BME280;63750;52.418;20.742;2023-02-28T11:13:33;102248.40;;;12.40;30.34
75172;BME280;63750;52.418;20.742;2023-02-28T11:16:05;102249.96;;;12.11;30.45
75172;BME280;63750;52.418;20.742;2023-02-28T11:18:38;102246.41;;;11.98;30.49
75172;BME280;63750;52.418;20.742;2023-02-28T11:21:09;102241.80;;;12.00;30.91
75172;BME280;63750;52.418;20.742;2023-02-28T11:23:42;102240.08;;;12.05;30.80
75172;BME280;63750;52.418;20.742;2023-02-28T11:26:10;102239.52;;;12.18;31.18
75172;BME280;63750;52.418;20.742;2023-02-28T11:28:39;102235.91;;;12.19;31.03
75172;BME280;63750;52.418;20.742;2023-02-28T11:31:17;102233.28;;;11.92;30.50
75172;BME280;63750;52.418;20.742;2023-02-28T11:33:46;102227.89;;;11.93;30.79
75172;BME280;63750;52.418;20.742;2023-02-28T11:36:16;102220.67;;;11.95;30.31
75172;BME280;63750;52.418;20.742;2023-02-28T11:38:44;102215.71;;;12.02;30.54
75172;BME280;63750;52.418;20.742;2023-02-28T11:41:32;102220.07;;;12.15;30.39
75172;BME280;63750;52.418;20.742;2023-02-28T11:44:36;102214.84;;;12.23;30.50
75172;BME280;63750;52.418;20.742;2023-02-28T11:47:15;102212.14;;;12.24;30.63
75172;BME280;63750;52.418;20.742;2023-02-28T11:49:51;102213.38;;;12.34;30.38
75172;BME280;63750;52.418;20.742;2023-02-28T11:52:32;102213.44;;;12.34;30.39
75172;BME280;63750;52.418;20.742;2023-02-28T11:55:12;102210.20;;;12.52;30.60
75172;BME280;63750;52.418;20.742;2023-02-28T11:57:52;102210.42;;;12.75;30.61
75172;BME280;63750;52.418;20.742;2023-02-28T12:00:34;102210.98;;;12.90;30.41
75172;BME280;63750;52.418;20.742;2023-02-28T12:03:22;102207.49;;;13.01;30.19
75172;BME280;63750;52.418;20.742;2023-02-28T12:06:00;102201.98;;;13.14;30.15
75172;BME280;63750;52.418;20.742;2023-02-28T12:08:42;102202.15;;;13.34;30.06
75172;BME280;63750;52.418;20.742;2023-02-28T12:11:19;102199.96;;;13.47;29.92
75172;BME280;63750;52.418;20.742;2023-02-28T12:13:58;102196.11;;;13.68;29.88
75172;BME280;63750;52.418;20.742;2023-02-28T12:16:42;102191.60;;;13.73;29.14
75172;BME280;63750;52.418;20.742;2023-02-28T12:19:23;102187.20;;;13.87;29.27
75172;BME280;63750;52.418;20.742;2023-02-28T12:22:15;102183.62;;;14.02;29.09
75172;BME280;63750;52.418;20.742;2023-02-28T12:27:46;102182.27;;;14.31;28.62
75172;BME280;63750;52.418;20.742;2023-02-28T12:30:18;102179.48;;;14.42;28.54
75172;BME280;63750;52.418;20.742;2023-02-28T12:32:48;102176.41;;;14.59;28.20
75172;BME280;63750;52.418;20.742;2023-02-28T12:35:20;102174.94;;;14.69;27.78
75172;BME280;63750;52.418;20.742;2023-02-28T12:37:53;102171.90;;;14.73;27.52
75172;BME280;63750;52.418;20.742;2023-02-28T12:40:28;102165.98;;;14.73;27.30
75172;BME280;63750;52.418;20.742;2023-02-28T12:43:04;102164.13;;;14.72;27.32
75172;BME280;63750;52.418;20.742;2023-02-28T12:45:41;102162.71;;;14.76;27.07
75172;BME280;63750;52.418;20.742;2023-02-28T12:48:13;102159.80;;;14.84;27.14
75172;BME280;63750;52.418;20.742;2023-02-28T12:50:42;102163.64;;;14.83;26.75
75172;BME280;63750;52.418;20.742;2023-02-28T12:53:15;102162.23;;;14.98;26.88
75172;BME280;63750;52.418;20.742;2023-02-28T12:55:50;102158.14;;;15.11;27.07
75172;BME280;63750;52.418;20.742;2023-02-28T12:58:27;102157.29;;;15.28;26.94
75172;BME280;63750;52.418;20.742;2023-02-28T13:01:21;102156.48;;;15.49;27.05
75172;BME280;63750;52.418;20.742;2023-02-28T13:04:07;102152.61;;;15.64;26.72
75172;BME280;63750;52.418;20.742;2023-02-28T13:06:50;102150.35;;;15.72;26.64
75172;BME280;63750;52.418;20.742;2023-02-28T13:09:25;102145.63;;;15.79;26.29
75172;BME280;63750;52.418;20.742;2023-02-28T13:11:54;102146.80;;;15.82;25.90
75172;BME280;63750;52.418;20.742;2023-02-28T13:14:27;102141.64;;;15.93;25.85
75172;BME280;63750;52.418;20.742;2023-02-28T13:17:09;102137.86;;;16.03;26.05
75172;BME280;63750;52.418;20.742;2023-02-28T13:19:40;102138.47;;;16.09;26.22